createdAt,value
2019-05-10T00:01:42.650Z,99749.94
2019-05-10T00:07:03.220Z,99753.84
2019-05-10T00:12:05.684Z,99762.48
2019-05-10T00:17:08.169Z,99773.69
2019-05-10T00:22:10.625Z,99768.59
2019-05-10T00:27:13.082Z,99771.95
2019-05-10T00:32:15.547Z,99767.63
2019-05-10T00:37:18.004Z,99768.62
2019-05-10T00:42:20.470Z,99770.37
2019-05-10T00:47:22.944Z,99782.94
2019-05-10T00:52:25.435Z,99785.88
2019-05-10T00:57:27.899Z,99793.92
2019-05-10T01:02:30.358Z,99794.51
2019-05-10T01:07:32.815Z,99806.84
2019-05-10T01:12:35.260Z,99808.61
2019-05-10T01:17:37.708Z,99805.86
2019-05-10T01:22:40.169Z,99821.77
2019-05-10T01:27:42.620Z,99816.51
2019-05-10T01:32:45.064Z,99817.48
2019-05-10T01:37:47.521Z,99816.91
2019-05-10T01:42:49.963Z,99831.01
2019-05-10T01:47:52.412Z,99822.55
2019-05-10T01:52:54.855Z,99836.31
2019-05-10T01:57:57.308Z,99832.61
2019-05-10T02:02:59.764Z,99831.83
2019-05-10T02:08:02.217Z,99836.76
2019-05-10T02:13:04.649Z,99856.74
2019-05-10T02:18:07.102Z,99856.55
2019-05-10T02:23:09.562Z,99857.75
2019-05-10T02:28:12.016Z,99854.63
2019-05-10T02:33:14.473Z,99866.95
2019-05-10T02:38:16.955Z,99868.34
2019-05-10T02:43:19.393Z,99873.05
2019-05-10T02:48:21.872Z,99869.34
2019-05-10T02:53:24.333Z,99867.97
2019-05-10T02:58:26.759Z,99866.82
2019-05-10T03:03:29.217Z,99866.03
2019-05-10T03:08:46.697Z,99870.53
2019-05-10T03:13:49.146Z,99882.30
2019-05-10T03:18:51.577Z,99889.17
2019-05-10T03:23:54.123Z,99891.52
2019-05-10T03:28:56.572Z,99899.91
2019-05-10T03:33:59.020Z,99906.42
2019-05-10T03:39:01.462Z,99907.98
2019-05-10T03:44:03.930Z,99909.87
2019-05-10T03:49:06.381Z,99916.85
2019-05-10T03:54:08.832Z,99917.97
2019-05-10T03:59:11.276Z,99922.28
2019-05-10T04:04:13.749Z,99922.91
2019-05-10T04:09:16.200Z,99933.91
2019-05-10T04:14:18.654Z,99935.71
2019-05-10T04:19:21.100Z,99939.05
2019-05-10T04:24:23.546Z,99956.08
2019-05-10T04:29:25.996Z,99954.13
2019-05-10T04:34:28.446Z,99956.23
2019-05-10T04:39:31.007Z,99961.25
2019-05-10T04:44:33.454Z,99962.02
2019-05-10T04:49:35.906Z,99969.66
2019-05-10T04:54:38.353Z,99979.33
2019-05-10T04:59:40.806Z,99981.99
2019-05-10T05:04:43.249Z,99983.25
2019-05-10T05:09:45.701Z,99988.50
2019-05-10T05:14:48.150Z,99994.85
2019-05-10T05:19:50.599Z,99996.31
2019-05-10T05:24:55.083Z,100006.55
2019-05-10T05:29:55.518Z,100006.05
2019-05-10T05:34:57.962Z,100008.47
2019-05-10T05:40:00.425Z,100011.06
2019-05-10T05:45:02.906Z,100020.73
2019-05-10T05:50:05.341Z,100032.04
2019-05-10T05:55:07.793Z,100028.45
2019-05-10T06:00:10.242Z,100038.00
2019-05-10T06:05:12.743Z,100039.08
2019-05-10T06:10:17.835Z,100040.97
2019-05-10T06:15:17.596Z,100037.52
2019-05-10T06:20:20.054Z,100051.73
2019-05-10T06:25:37.902Z,100051.84
2019-05-10T06:30:24.973Z,100059.82
2019-05-10T06:35:27.442Z,100064.70
2019-05-10T06:40:34.784Z,100070.20
2019-05-10T06:45:32.356Z,100068.80
2019-05-10T06:50:34.807Z,100066.48
2019-05-10T06:55:37.268Z,100073.92
2019-05-10T07:00:44.822Z,100077.96
2019-05-10T07:05:42.195Z,100071.70
2019-05-10T07:10:44.634Z,100074.08
2019-05-10T07:15:47.080Z,100077.05
2019-05-10T07:20:49.547Z,100095.03
2019-05-10T07:25:52.009Z,100096.22
2019-05-10T07:30:54.471Z,100098.16
2019-05-10T07:35:56.917Z,100098.03
2019-05-10T07:40:59.370Z,100100.27
2019-05-10T07:46:06.483Z,100107.47
2019-05-10T07:51:04.306Z,100102.98
2019-05-10T07:56:08.016Z,100114.90
2019-05-10T08:01:09.217Z,100115.05
2019-05-10T08:06:15.079Z,100118.30
2019-05-10T08:11:14.126Z,100125.88
2019-05-10T08:16:21.828Z,100129.25
2019-05-10T08:21:23.901Z,100137.95
2019-05-10T08:26:24.616Z,100138.46
2019-05-10T08:31:26.233Z,100133.48
2019-05-10T08:36:26.468Z,100134.91
2019-05-10T08:41:28.920Z,100133.33
2019-05-10T08:46:40.188Z,100121.09
2019-05-10T08:51:34.534Z,100114.03
2019-05-10T08:56:36.302Z,100114.32
2019-05-10T09:01:46.554Z,100109.81
2019-05-10T09:06:42.036Z,100103.08
2019-05-10T09:11:44.479Z,100101.78
2019-05-10T09:16:56.282Z,100101.35
2019-05-10T09:21:50.234Z,100065.75
2019-05-10T09:26:52.774Z,100083.45
2019-05-10T09:31:53.615Z,100083.38
2019-05-10T09:36:56.066Z,100084.87
2019-05-10T09:41:58.513Z,100101.87
2019-05-10T09:47:01.963Z,100100.07
2019-05-10T09:52:04.631Z,100110.56
2019-05-10T09:57:08.191Z,100125.11
2019-05-10T10:02:14.292Z,100113.23
2019-05-10T10:07:10.830Z,100074.28
2019-05-10T10:12:13.277Z,100086.09
2019-05-10T10:17:18.390Z,100090.77
2019-05-10T10:22:19.841Z,100104.39
2019-05-10T10:27:20.676Z,100099.31
2019-05-10T10:32:24.618Z,100094.86
2019-05-10T10:37:28.997Z,100077.16
2019-05-10T10:42:28.050Z,100073.42
2019-05-10T10:47:32.269Z,100062.18
2019-05-10T10:52:33.028Z,100063.59
2019-05-10T10:57:37.391Z,100055.43
2019-05-10T11:02:41.290Z,100066.77
2019-05-10T11:07:44.309Z,100067.41
2019-05-10T11:12:42.865Z,100081.52
2019-05-10T11:17:50.468Z,100065.02
2019-05-10T11:22:53.359Z,100068.00
2019-05-10T11:27:58.370Z,100074.86
2019-05-10T11:32:55.417Z,100092.40
2019-05-10T11:37:57.892Z,100104.43
2019-05-10T11:43:01.511Z,100132.27
2019-05-10T11:48:02.870Z,100110.27
2019-05-10T11:53:06.835Z,100096.55
2019-05-10T11:58:10.018Z,100084.08
2019-05-10T12:03:15.453Z,100078.59
2019-05-10T12:08:13.281Z,100090.27
2019-05-10T12:13:19.758Z,100102.31
2019-05-10T12:18:26.344Z,100114.80
2019-05-10T12:23:29.979Z,100119.07
2019-05-10T12:28:28.493Z,100107.41
2019-05-10T12:33:27.664Z,100094.24
2019-05-10T12:38:29.679Z,100101.67
2019-05-10T12:43:30.981Z,100097.94
2019-05-10T12:48:35.415Z,100097.48
2019-05-10T12:53:36.709Z,100070.52
2019-05-10T12:58:37.711Z,100067.22
2019-05-10T13:03:40.175Z,100064.80
2019-05-10T13:08:42.643Z,100051.86
2019-05-10T13:13:45.275Z,100050.32
2019-05-10T13:18:51.766Z,100049.28
2019-05-10T13:23:53.225Z,100057.02
2019-05-10T13:28:52.636Z,100054.52
2019-05-10T13:33:55.248Z,100064.02
2019-05-10T13:38:57.714Z,100059.55
2019-05-10T13:44:05.008Z,100065.10
2019-05-10T13:49:02.647Z,100074.37
2019-05-10T13:54:05.526Z,100071.42
2019-05-10T13:59:15.364Z,100077.73
2019-05-10T14:04:10.063Z,100064.28
2019-05-10T14:09:12.521Z,100070.34
2019-05-10T14:14:20.392Z,100067.54
2019-05-10T14:19:22.993Z,100061.62
2019-05-10T14:24:19.927Z,100069.55
2019-05-10T14:29:32.955Z,100063.03
2019-05-10T14:34:24.899Z,100068.40
2019-05-10T14:39:27.360Z,100064.19
2019-05-10T14:44:29.829Z,100064.06
2019-05-10T14:49:32.278Z,100061.27
2019-05-10T14:54:43.103Z,100072.74
2019-05-10T14:59:37.222Z,100069.07
2019-05-10T15:04:45.022Z,100073.05
2019-05-10T15:09:42.124Z,100078.61
2019-05-10T15:14:44.583Z,100077.69
2019-05-10T15:19:56.537Z,100070.02
2019-05-10T15:24:49.503Z,100078.22
2019-05-10T15:29:51.981Z,100074.97
2019-05-10T15:35:06.570Z,100065.64
2019-05-10T15:40:00.597Z,100054.72
2019-05-10T15:45:05.282Z,100062.14
2019-05-10T15:50:01.945Z,100068.08
2019-05-10T15:55:04.341Z,100068.86
2019-05-10T16:00:06.779Z,100067.98
2019-05-10T16:05:23.373Z,100068.51
2019-05-10T16:10:11.722Z,100065.66
2019-05-10T16:15:20.074Z,100068.67
2019-05-10T16:20:16.780Z,100061.70
2019-05-10T16:25:19.246Z,100068.48
2019-05-10T16:30:21.752Z,100074.67
2019-05-10T16:35:37.052Z,100070.34
2019-05-10T16:40:26.723Z,100070.20
2019-05-10T16:45:29.188Z,100068.51
2019-05-10T16:50:33.766Z,100062.17
2019-05-10T16:55:35.435Z,100065.97
2019-05-10T17:00:40.626Z,100060.66
2019-05-10T17:05:52.658Z,100059.66
2019-05-10T17:10:41.568Z,100063.97
2019-05-10T17:15:44.156Z,100065.97
2019-05-10T17:20:51.003Z,100057.47
2019-05-10T17:25:49.145Z,100065.17
2019-05-10T17:30:51.602Z,100054.37
2019-05-10T17:36:07.553Z,100049.78
2019-05-10T17:40:56.528Z,100047.00
2019-05-10T17:45:58.989Z,100052.58
2019-05-10T17:51:01.486Z,100040.78
2019-05-10T17:56:03.950Z,100036.75
2019-05-10T18:01:06.397Z,100041.52
2019-05-10T18:06:23.114Z,100033.83
2019-05-10T18:11:11.336Z,100032.83
2019-05-10T18:16:13.808Z,100035.87
2019-05-10T18:21:21.841Z,100045.02
2019-05-10T18:26:18.751Z,100043.40
2019-05-10T18:31:21.265Z,100050.90
2019-05-10T18:36:26.769Z,100057.86
2019-05-10T18:41:26.235Z,100070.14
2019-05-10T18:46:28.698Z,100065.78
2019-05-10T18:51:34.405Z,100073.89
2019-05-10T18:56:33.629Z,100075.33
2019-05-10T19:01:38.817Z,100085.58
2019-05-10T19:06:38.550Z,100080.60
2019-05-10T19:11:41.263Z,100088.50
2019-05-10T19:16:43.475Z,100090.10
2019-05-10T19:21:45.942Z,100095.86
2019-05-10T19:26:48.414Z,100102.38
2019-05-10T19:31:50.895Z,100099.41
2019-05-10T19:36:53.352Z,100101.14
2019-05-10T19:42:03.027Z,100104.87
2019-05-10T19:46:58.309Z,100098.94
2019-05-10T19:52:00.767Z,100103.39
2019-05-10T19:57:03.242Z,100119.88
2019-05-10T20:02:05.730Z,100120.31
2019-05-10T20:07:08.193Z,100109.59
2019-05-10T20:12:13.252Z,100123.53
2019-05-10T20:17:15.778Z,100113.03
2019-05-10T20:22:18.187Z,100099.05
2019-05-10T20:27:20.651Z,100100.68
2019-05-10T20:32:23.133Z,100095.13
2019-05-10T20:37:25.599Z,100085.53
2019-05-10T20:42:28.053Z,100084.99
2019-05-10T20:47:30.550Z,100084.02
2019-05-10T20:52:33.006Z,100095.97
2019-05-10T20:57:35.457Z,100093.35
2019-05-10T21:02:37.957Z,100089.00
2019-05-10T21:07:40.426Z,100085.04
2019-05-10T21:12:42.884Z,100085.75
2019-05-10T21:17:45.348Z,100079.31
2019-05-10T21:22:47.829Z,100077.31
2019-05-10T21:27:50.288Z,100075.55
2019-05-10T21:32:52.742Z,100059.14
2019-05-10T21:37:55.221Z,100065.98
2019-05-10T21:42:57.688Z,100054.79
2019-05-10T21:48:00.225Z,100050.70
2019-05-10T21:53:02.632Z,100042.00
2019-05-10T21:58:05.109Z,100033.75
2019-05-10T22:03:07.591Z,100031.83
2019-05-10T22:08:10.057Z,100030.45
2019-05-10T22:13:12.554Z,100035.17
2019-05-10T22:18:15.002Z,100033.25
2019-05-10T22:23:17.459Z,100025.80
2019-05-10T22:28:19.913Z,100021.80
2019-05-10T22:33:22.430Z,100017.93
2019-05-10T22:38:24.822Z,100012.61
2019-05-10T22:43:27.274Z,100008.58
2019-05-10T22:48:29.742Z,100010.76
2019-05-10T22:53:32.196Z,100012.31
2019-05-10T22:58:34.660Z,100008.12
2019-05-10T23:03:37.137Z,100015.41
2019-05-10T23:08:39.660Z,100006.05
2019-05-10T23:13:42.084Z,100006.55
2019-05-10T23:18:44.559Z,99998.70
2019-05-10T23:23:47.009Z,99990.30
2019-05-10T23:28:49.462Z,99983.73
2019-05-10T23:33:51.908Z,99977.64
2019-05-10T23:38:54.360Z,99973.34
2019-05-10T23:43:56.821Z,99946.23
2019-05-10T23:48:59.282Z,99938.75
2019-05-10T23:54:01.731Z,99937.38
2019-05-10T23:59:04.190Z,99926.20
